Time;durP1;ratioP1;P1;durP2;ratioP2;P2;SDS_P1;SDS_P2;PMS_P1;PMS_P2;Temp;Humidity;BMP_temperature;BMP_pressure;BME280_temperature;BME280_humidity;BME280_pressure;Samples;Min_cycle;Max_cycle;Signal;HPM_P1;HPM_P2
2021/05/05 00:02:07;;;;;;;8.20;4.32;;;28.30;90.50;;;;;;5126717;28;20087;-47
2021/05/05 00:04:33;;;;;;;11.88;6.43;;;28.30;90.50;;;;;;5127248;28;20024;-54
2021/05/05 00:07:00;;;;;;;9.15;6.38;;;28.40;90.60;;;;;;5127680;28;20030;-52
2021/05/05 00:09:27;;;;;;;7.50;5.07;;;28.40;90.50;;;;;;5127770;28;20034;-52
2021/05/05 00:11:54;;;;;;;10.45;4.80;;;28.40;90.70;;;;;;5127973;28;20024;-53
2021/05/05 00:14:21;;;;;;;11.82;4.53;;;28.40;90.60;;;;;;5127962;28;20083;-51
2021/05/05 00:16:49;;;;;;;7.35;4.15;;;28.40;90.60;;;;;;5127540;28;20323;-48
2021/05/05 00:19:16;;;;;;;9.13;3.97;;;28.40;90.70;;;;;;5109429;28;20032;-55
2021/05/05 00:21:43;;;;;;;6.43;3.45;;;28.40;90.70;;;;;;5127432;28;20278;-55
2021/05/05 00:24:11;;;;;;;7.78;3.30;;;28.40;90.70;;;;;;5126994;28;20024;-60
2021/05/05 00:26:42;;;;;;;6.88;3.80;;;28.40;90.60;;;;;;5127071;28;20015;-49
2021/05/05 00:29:09;;;;;;;7.47;3.13;;;28.40;90.70;;;;;;5126716;28;20048;-55
2021/05/05 00:31:36;;;;;;;10.50;3.45;;;28.40;90.80;;;;;;5127678;28;20019;-54
2021/05/05 00:34:03;;;;;;;8.70;3.75;;;28.40;90.80;;;;;;5127632;28;20028;-51
2021/05/05 00:36:30;;;;;;;10.93;4.03;;;28.40;90.70;;;;;;5109790;28;20030;-51
2021/05/05 00:38:57;;;;;;;5.10;2.97;;;28.40;90.70;;;;;;5127614;28;20091;-51
2021/05/05 00:41:24;;;;;;;9.52;3.60;;;28.30;90.70;;;;;;5109038;28;20023;-54
2021/05/05 00:43:52;;;;;;;5.05;2.35;;;28.30;90.80;;;;;;5127213;28;20030;-51
2021/05/05 00:46:18;;;;;;;4.55;2.95;;;28.30;90.70;;;;;;5127040;28;20020;-57
2021/05/05 00:48:45;;;;;;;5.28;2.55;;;28.30;90.70;;;;;;5109207;28;20031;-45
2021/05/05 00:51:12;;;;;;;8.50;2.63;;;28.30;90.70;;;;;;5127406;28;20031;-52
2021/05/05 00:53:40;;;;;;;7.80;2.88;;;28.30;90.70;;;;;;5127212;28;20242;-59
2021/05/05 00:56:07;;;;;;;8.38;2.40;;;28.30;90.60;;;;;;5126908;28;20019;-51
2021/05/05 00:58:35;;;;;;;7.85;2.80;;;28.30;90.70;;;;;;5126788;28;20027;-53
2021/05/05 01:01:03;;;;;;;13.95;4.80;;;28.30;90.70;;;;;;5126717;28;20015;-51
2021/05/05 01:03:30;;;;;;;7.95;3.90;;;28.30;90.70;;;;;;5126805;28;20204;-54
2021/05/05 01:05:57;;;;;;;11.20;5.55;;;28.30;90.70;;;;;;5125857;28;20059;-57
2021/05/05 01:08:24;;;;;;;8.45;3.92;;;28.30;90.80;;;;;;5108693;28;20031;-62
2021/05/05 01:10:51;;;;;;;7.00;3.97;;;28.20;90.70;;;;;;5117803;28;20165;-59
2021/05/05 01:13:20;;;;;;;7.57;4.55;;;28.20;90.70;;;;;;5126337;28;20354;-54
2021/05/05 01:15:47;;;;;;;7.75;3.90;;;28.20;90.70;;;;;;5126743;28;20023;-55
2021/05/05 01:18:13;;;;;;;11.35;4.25;;;28.20;90.70;;;;;;5126337;28;20189;-54
2021/05/05 01:20:40;;;;;;;8.05;4.35;;;28.20;90.70;;;;;;5126174;28;20015;-51
2021/05/05 01:23:07;;;;;;;7.03;2.97;;;28.20;90.80;;;;;;5107851;28;20316;-55
2021/05/05 01:25:37;;;;;;;6.72;3.03;;;28.20;90.80;;;;;;5125901;28;20070;-55
2021/05/05 01:28:04;;;;;;;8.60;3.40;;;28.20;90.80;;;;;;5126350;28;20039;-57
2021/05/05 01:30:31;;;;;;;9.18;2.92;;;28.20;90.90;;;;;;5126047;28;20060;-56
2021/05/05 01:32:58;;;;;;;4.30;2.67;;;28.20;90.90;;;;;;5125551;28;20094;-58
2021/05/05 01:35:25;;;;;;;9.27;2.63;;;28.20;91.00;;;;;;5125545;28;20379;-60
2021/05/05 01:37:52;;;;;;;4.80;2.17;;;28.20;91.00;;;;;;5125855;28;20066;-60
2021/05/05 01:40:29;;;;;;;7.97;2.90;;;28.20;91.00;;;;;;5126052;28;20027;-52
2021/05/05 01:42:57;;;;;;;7.10;2.90;;;28.10;91.00;;;;;;5109540;28;20045;-55
2021/05/05 01:45:24;;;;;;;8.32;2.85;;;28.10;91.00;;;;;;5107356;28;20019;-54
2021/05/05 01:47:56;;;;;;;9.27;2.83;;;28.10;91.10;;;;;;5125553;28;20027;-55
2021/05/05 01:50:23;;;;;;;7.78;2.72;;;28.10;91.00;;;;;;5125839;28;20011;-55
2021/05/05 01:52:49;;;;;;;6.38;2.72;;;28.10;91.00;;;;;;5125527;28;20222;-52
2021/05/05 01:55:16;;;;;;;9.00;3.10;;;28.10;91.00;;;;;;5125492;28;20016;-56
2021/05/05 01:57:43;;;;;;;6.93;2.55;;;28.10;91.00;;;;;;5125355;28;20240;-56
2021/05/05 02:00:23;;;;;;;7.03;2.33;;;28.10;90.90;;;;;;5125335;28;20011;-54
2021/05/05 02:02:58;;;;;;;6.32;2.20;;;28.10;90.90;;;;;;5109502;28;20034;-54
2021/05/05 02:05:25;;;;;;;6.22;2.50;;;28.10;90.90;;;;;;5125190;28;20051;-52
2021/05/05 02:07:52;;;;;;;11.23;2.53;;;28.00;90.90;;;;;;5125180;28;20023;-62
2021/05/05 02:10:20;;;;;;;9.45;2.40;;;28.00;90.90;;;;;;5124763;28;20015;-56
2021/05/05 02:12:48;;;;;;;6.70;2.03;;;28.00;91.00;;;;;;5125507;28;20118;-45
2021/05/05 02:15:19;;;;;;;9.10;2.92;;;28.00;90.90;;;;;;5125309;28;20076;-50
2021/05/05 02:17:50;;;;;;;8.75;3.00;;;28.00;91.00;;;;;;5124166;28;20015;-52
2021/05/05 02:20:20;;;;;;;11.85;3.75;;;28.00;91.00;;;;;;5125221;28;20016;-50
2021/05/05 02:22:48;;;;;;;8.48;3.30;;;28.00;91.00;;;;;;5125353;28;20040;-55
2021/05/05 02:25:22;;;;;;;10.15;2.88;;;28.00;91.00;;;;;;5124870;28;20050;-55
2021/05/05 02:27:52;;;;;;;7.32;3.25;;;27.90;91.10;;;;;;5106780;28;20095;-56
2021/05/05 02:30:20;;;;;;;8.80;3.35;;;27.90;91.10;;;;;;5106954;28;20024;-49
2021/05/05 02:32:49;;;;;;;6.78;2.88;;;27.90;91.10;;;;;;5124717;28;20096;-54
2021/05/05 02:35:16;;;;;;;7.63;2.80;;;27.90;91.10;;;;;;5124616;28;20019;-55
2021/05/05 02:37:44;;;;;;;8.45;2.53;;;27.90;91.10;;;;;;5123953;28;20320;-49
2021/05/05 02:40:12;;;;;;;6.78;2.08;;;27.90;91.30;;;;;;5124251;28;20019;-51
2021/05/05 02:42:39;;;;;;;9.50;2.60;;;27.80;91.30;;;;;;5123944;28;20200;-49
2021/05/05 02:45:07;;;;;;;9.02;2.75;;;27.70;91.40;;;;;;5124052;28;20062;-54
2021/05/05 02:47:33;;;;;;;8.02;2.67;;;27.70;91.40;;;;;;5124191;28;20356;-53
2021/05/05 02:50:03;;;;;;;7.68;5.07;;;27.70;91.40;;;;;;5123917;28;20030;-52
2021/05/05 02:52:30;;;;;;;9.43;5.13;;;27.60;91.60;;;;;;5123990;28;20011;-60
2021/05/05 02:54:56;;;;;;;9.70;3.75;;;27.60;91.80;;;;;;5123899;28;20057;-60
2021/05/05 02:57:23;;;;;;;10.45;2.80;;;27.50;91.90;;;;;;5121408;28;20043;-52
2021/05/05 02:59:50;;;;;;;11.82;2.50;;;27.50;91.90;;;;;;5123445;28;20028;-53
2021/05/05 03:02:17;;;;;;;6.13;1.67;;;27.40;91.80;;;;;;5105991;28;20019;-50
2021/05/05 03:04:45;;;;;;;10.68;1.75;;;27.40;91.90;;;;;;5121362;28;20184;-52
2021/05/05 03:07:12;;;;;;;7.95;2.03;;;27.30;91.90;;;;;;5124304;28;20023;-54
2021/05/05 03:09:40;;;;;;;11.73;2.30;;;27.40;91.90;;;;;;5124784;28;20036;-51
2021/05/05 03:12:08;;;;;;;7.43;2.10;;;27.40;91.90;;;;;;5122179;28;20031;-53
2021/05/05 03:14:36;;;;;;;4.60;2.10;;;27.50;91.70;;;;;;5124356;28;20023;-60
2021/05/05 03:17:03;;;;;;;7.28;2.80;;;27.50;91.60;;;;;;5123485;28;20012;-55
2021/05/05 03:19:30;;;;;;;17.25;14.55;;;27.60;91.60;;;;;;5123914;28;20106;-54
2021/05/05 03:21:56;;;;;;;35.70;29.85;;;27.60;91.60;;;;;;5123853;28;20312;-56
2021/05/05 03:24:23;;;;;;;16.13;11.30;;;27.60;91.60;;;;;;5123095;28;20030;-51
2021/05/05 03:26:50;;;;;;;15.23;11.25;;;27.60;91.60;;;;;;5123367;28;20028;-60
2021/05/05 03:29:16;;;;;;;15.85;10.82;;;27.60;91.50;;;;;;5125293;28;20242;-55
2021/05/05 03:31:44;;;;;;;12.45;8.90;;;27.70;91.60;;;;;;5127759;28;20022;-52
2021/05/05 03:34:11;;;;;;;16.58;8.82;;;27.60;91.50;;;;;;5127811;28;20028;-54
2021/05/05 03:36:38;;;;;;;14.48;7.45;;;27.60;91.50;;;;;;5127479;28;20080;-58
2021/05/05 03:39:07;;;;;;;11.23;6.38;;;27.70;91.50;;;;;;5109186;28;20335;-55
2021/05/05 03:41:33;;;;;;;16.90;6.38;;;27.60;91.50;;;;;;5127521;28;20011;-55
2021/05/05 03:44:00;;;;;;;13.63;5.10;;;27.60;91.50;;;;;;5127100;28;20019;-53
2021/05/05 03:46:26;;;;;;;10.00;4.85;;;27.60;91.50;;;;;;5126761;28;20015;-56
2021/05/05 03:48:58;;;;;;;10.52;5.32;;;27.60;91.50;;;;;;5127453;28;20238;-58
2021/05/05 03:51:43;;;;;;;10.68;4.03;;;27.60;91.40;;;;;;5069007;28;20016;-55
2021/05/05 03:54:17;;;;;;;6.55;3.30;;;27.60;91.40;;;;;;5123825;28;20031;-55
2021/05/05 03:57:07;;;;;;;6.20;3.90;;;27.50;91.40;;;;;;5109044;28;20016;-56
2021/05/05 03:59:41;;;;;;;7.43;3.22;;;27.60;91.50;;;;;;5126579;28;20027;-52
2021/05/05 04:02:45;;;;;;;7.70;3.35;;;27.60;91.50;;;;;;5126534;28;20327;-56
2021/05/05 04:05:19;;;;;;;6.43;3.13;;;27.50;91.60;;;;;;5105601;28;20272;-50
2021/05/05 04:07:48;;;;;;;5.53;2.58;;;27.50;91.60;;;;;;5119003;28;20473;-54
2021/05/05 04:10:17;;;;;;;8.52;2.70;;;27.50;91.60;;;;;;5108541;28;20027;-56
2021/05/05 04:12:48;;;;;;;4.82;2.38;;;27.50;91.60;;;;;;5126512;28;20089;-53
2021/05/05 04:15:19;;;;;;;7.10;2.80;;;27.50;91.70;;;;;;5091479;28;20026;-55
2021/05/05 04:17:47;;;;;;;6.85;2.50;;;27.50;91.80;;;;;;5084303;28;20020;-58
2021/05/05 04:20:20;;;;;;;8.90;2.65;;;27.50;91.70;;;;;;5121712;28;20034;-52
2021/05/05 04:22:50;;;;;;;7.30;2.85;;;27.50;91.70;;;;;;5108008;28;20096;-55
2021/05/05 04:25:20;;;;;;;8.45;2.85;;;27.50;91.80;;;;;;5123158;28;20065;-56
2021/05/05 04:27:52;;;;;;;8.95;2.90;;;27.50;91.80;;;;;;5103552;28;20040;-53
2021/05/05 04:30:32;;;;;;;8.32;2.28;;;27.50;91.80;;;;;;5045119;28;20027;-54
2021/05/05 04:33:03;;;;;;;3.63;1.80;;;27.50;91.90;;;;;;5082468;28;20028;-58
2021/05/05 04:35:31;;;;;;;7.85;2.58;;;27.50;91.80;;;;;;5122831;28;20103;-59
2021/05/05 04:37:59;;;;;;;13.90;2.58;;;27.50;91.80;;;;;;5125135;28;20072;-59
2021/05/05 04:40:26;;;;;;;12.50;2.30;;;27.50;91.90;;;;;;5123615;28;20011;-56
2021/05/05 04:42:55;;;;;;;7.43;2.38;;;27.40;91.90;;;;;;5126996;28;20292;-54
2021/05/05 04:45:27;;;;;;;7.53;2.85;;;27.50;92.00;;;;;;5108317;28;20235;-60
2021/05/05 04:47:55;;;;;;;;;;;27.50;92.00;;;;;;5110003;28;20042;-61
2021/05/05 04:50:25;;;;;;;7.65;2.17;;;27.40;91.90;;;;;;5126543;28;19923;-54
2021/05/05 04:52:56;;;;;;;8.32;2.28;;;27.40;91.90;;;;;;5108566;28;20027;-53
2021/05/05 04:55:24;;;;;;;8.27;2.25;;;27.40;91.90;;;;;;5092890;28;20028;-64
2021/05/05 04:57:54;;;;;;;9.30;2.33;;;27.40;92.00;;;;;;5108341;28;20292;-53
2021/05/05 05:00:23;;;;;;;5.82;2.50;;;27.40;91.90;;;;;;5108776;28;20335;-53
2021/05/05 05:02:51;;;;;;;6.10;2.20;;;27.40;91.90;;;;;;5074489;28;20267;-55
2021/05/05 05:05:24;;;;;;;9.77;2.65;;;27.40;92.00;;;;;;5118351;28;20252;-53
2021/05/05 05:07:54;;;;;;;6.15;2.05;;;27.40;91.90;;;;;;5086952;28;20043;-59
2021/05/05 05:10:21;;;;;;;8.45;2.10;;;27.40;91.90;;;;;;5103440;28;20091;-56
2021/05/05 05:12:48;;;;;;;8.75;1.95;;;27.40;91.90;;;;;;5105886;28;20214;-56
2021/05/05 05:15:14;;;;;;;4.50;1.73;;;27.40;91.90;;;;;;5105666;28;20212;-58
2021/05/05 05:17:42;;;;;;;6.45;2.00;;;27.40;91.90;;;;;;5105784;28;20012;-52
2021/05/05 05:20:09;;;;;;;10.40;1.70;;;27.40;91.90;;;;;;5105468;28;20070;-52
2021/05/05 05:22:36;;;;;;;8.57;1.63;;;27.30;91.90;;;;;;5105411;28;20058;-53
2021/05/05 05:25:12;;;;;;;9.35;1.90;;;27.30;91.90;;;;;;5105663;28;20061;-55
2021/05/05 05:27:39;;;;;;;9.30;2.13;;;27.30;91.90;;;;;;5105410;28;20008;-55
2021/05/05 05:30:08;;;;;;;9.07;2.05;;;27.30;92.00;;;;;;5105577;28;20026;-61
2021/05/05 05:32:35;;;;;;;7.40;2.00;;;27.30;92.10;;;;;;5105298;28;20034;-61
2021/05/05 05:35:02;;;;;;;7.88;2.10;;;27.30;92.10;;;;;;5105642;28;20043;-51
2021/05/05 05:37:28;;;;;;;10.45;2.53;;;27.30;92.10;;;;;;5105172;28;20016;-53
2021/05/05 05:39:55;;;;;;;9.32;1.85;;;27.30;92.10;;;;;;5105433;28;20343;-53
2021/05/05 05:42:22;;;;;;;9.07;2.00;;;27.20;92.10;;;;;;5105269;28;20016;-55
2021/05/05 05:44:48;;;;;;;4.80;1.67;;;27.30;92.10;;;;;;5104990;28;20020;-55
2021/05/05 05:47:15;;;;;;;10.35;2.22;;;27.20;92.10;;;;;;5105494;28;20355;-55
2021/05/05 05:49:42;;;;;;;7.95;1.90;;;27.20;92.10;;;;;;5105766;28;20062;-53
2021/05/05 05:52:08;;;;;;;7.10;1.77;;;27.20;92.10;;;;;;5105099;28;20015;-58
2021/05/05 05:54:35;;;;;;;9.32;2.08;;;27.20;92.20;;;;;;5105613;28;20024;-56
2021/05/05 05:57:01;;;;;;;7.95;1.63;;;27.20;92.20;;;;;;5105069;28;20213;-55
2021/05/05 06:00:06;;;;;;;9.07;1.77;;;27.20;92.20;;;;;;5105279;28;20338;-53
2021/05/05 06:02:33;;;;;;;6.57;2.30;;;27.20;92.20;;;;;;5103722;28;20016;-53
2021/05/05 06:04:59;;;;;;;7.57;1.95;;;27.20;92.30;;;;;;5102368;28;20047;-54
2021/05/05 06:07:26;;;;;;;8.32;2.00;;;27.20;92.30;;;;;;5125184;28;20026;-56
2021/05/05 06:09:52;;;;;;;7.38;1.77;;;27.20;92.30;;;;;;5125149;28;20019;-54
2021/05/05 06:12:19;;;;;;;7.05;1.73;;;27.20;92.40;;;;;;5125210;28;20023;-53
2021/05/05 06:14:45;;;;;;;8.85;1.88;;;27.20;92.30;;;;;;5125779;28;20028;-54
2021/05/05 06:17:12;;;;;;;5.00;2.13;;;27.20;92.40;;;;;;5125166;28;20016;-57
2021/05/05 06:19:39;;;;;;;9.38;1.80;;;27.20;92.40;;;;;;5125327;28;20039;-59
2021/05/05 06:22:06;;;;;;;4.38;1.52;;;27.20;92.40;;;;;;5125215;28;20015;-53
2021/05/05 06:24:32;;;;;;;4.00;1.70;;;27.10;92.40;;;;;;5124804;28;20267;-54
2021/05/05 06:30:22;;;;;;;4.80;1.77;;;27.20;92.50;;;;;;5125177;28;20058;-54
2021/05/05 06:32:49;;;;;;;7.65;1.95;;;27.20;92.50;;;;;;5125039;28;20104;-55
2021/05/05 06:35:16;;;;;;;7.28;2.25;;;27.10;92.50;;;;;;5125019;28;20075;-57
2021/05/05 06:37:43;;;;;;;6.25;2.00;;;27.10;92.40;;;;;;5124768;28;20255;-53
2021/05/05 06:40:10;;;;;;;7.65;1.70;;;27.10;92.40;;;;;;5124753;28;20330;-53
2021/05/05 06:43:07;;;;;;;7.38;2.13;;;27.10;92.40;;;;;;5124825;28;20015;-58
2021/05/05 06:45:34;;;;;;;9.70;2.00;;;27.10;92.40;;;;;;5124472;28;20109;-58
2021/05/05 06:48:00;;;;;;;6.18;1.95;;;27.10;92.40;;;;;;5124933;28;20087;-61
2021/05/05 06:50:28;;;;;;;6.00;1.92;;;27.10;92.40;;;;;;5124640;28;20015;-56
2021/05/05 06:52:58;;;;;;;6.38;1.95;;;27.10;92.40;;;;;;5124629;28;20081;-58
2021/05/05 06:55:24;;;;;;;7.97;1.67;;;27.10;92.40;;;;;;5124483;28;20228;-57
2021/05/05 06:57:51;;;;;;;8.80;2.40;;;27.10;92.30;;;;;;5124689;28;20020;-56
2021/05/05 07:00:19;;;;;;;7.88;1.77;;;27.10;92.40;;;;;;5124504;28;20019;-57
2021/05/05 07:02:46;;;;;;;3.05;1.60;;;27.10;92.40;;;;;;5124601;28;21494;-58
2021/05/05 07:05:13;;;;;;;7.82;1.83;;;27.10;92.40;;;;;;5117298;28;20329;-54
2021/05/05 07:07:41;;;;;;;5.88;1.70;;;27.10;92.40;;;;;;5103904;28;20020;-55
2021/05/05 07:10:11;;;;;;;6.35;1.75;;;27.10;92.50;;;;;;5103893;28;20032;-59
2021/05/05 07:12:37;;;;;;;6.70;1.80;;;27.00;92.40;;;;;;5104052;28;20023;-54
2021/05/05 07:15:05;;;;;;;5.88;1.83;;;27.10;92.40;;;;;;5104249;28;20313;-52
2021/05/05 07:17:32;;;;;;;7.38;2.20;;;27.00;92.40;;;;;;5103945;28;20038;-56
2021/05/05 07:19:58;;;;;;;6.97;1.77;;;27.10;92.50;;;;;;5103951;28;20016;-53
2021/05/05 07:22:25;;;;;;;7.47;1.92;;;27.00;92.50;;;;;;5104027;28;20020;-56
2021/05/05 07:24:52;;;;;;;12.90;2.47;;;27.10;92.60;;;;;;5103954;28;20020;-52
2021/05/05 07:27:19;;;;;;;8.32;1.80;;;27.00;92.50;;;;;;5104149;28;20213;-61
2021/05/05 07:29:45;;;;;;;7.78;1.65;;;27.00;92.50;;;;;;5104408;28;20108;-59
2021/05/05 07:32:12;;;;;;;5.97;1.90;;;27.00;92.40;;;;;;5104070;28;20042;-56
2021/05/05 07:34:40;;;;;;;2.97;1.20;;;27.00;92.40;;;;;;5104255;28;20098;-55
2021/05/05 07:37:20;;;;;;;5.78;1.45;;;27.00;92.30;;;;;;5103784;28;20057;-54
2021/05/05 07:40:21;;;;;;;5.50;1.60;;;27.00;92.30;;;;;;5104070;28;20039;-59
2021/05/05 07:48:29;;;;;;;3.97;1.38;;;27.00;92.20;;;;;;5070068;28;20040;-55
2021/05/05 07:50:56;;;;;;;3.67;1.50;;;27.00;92.20;;;;;;5103664;28;20343;-54
2021/05/05 07:53:23;;;;;;;5.05;1.30;;;27.00;92.10;;;;;;5103663;28;20035;-60
2021/05/05 07:55:51;;;;;;;2.72;1.20;;;27.00;92.10;;;;;;5103621;28;20369;-56
2021/05/05 07:58:18;;;;;;;2.20;1.40;;;27.00;92.10;;;;;;5103601;28;20197;-53
2021/05/05 08:00:45;;;;;;;5.75;1.35;;;27.00;92.00;;;;;;5103466;28;20243;-54
2021/05/05 08:03:11;;;;;;;3.40;1.10;;;27.00;91.90;;;;;;5103614;28;20028;-56
2021/05/05 08:05:38;;;;;;;2.88;1.10;;;27.00;91.90;;;;;;5113500;28;20114;-54
2021/05/05 08:08:05;;;;;;;2.40;1.20;;;27.00;91.90;;;;;;5124056;28;20043;-56
2021/05/05 08:10:31;;;;;;;2.88;1.02;;;27.00;91.90;;;;;;5124047;28;20015;-54
2021/05/05 08:12:58;;;;;;;4.28;1.40;;;27.00;91.80;;;;;;5124050;28;20039;-59
2021/05/05 08:15:27;;;;;;;3.53;1.35;;;27.00;91.80;;;;;;5124069;28;20020;-56
2021/05/05 08:17:53;;;;;;;3.80;1.10;;;27.00;91.80;;;;;;5127561;28;20034;-61
2021/05/05 08:20:20;;;;;;;3.45;1.20;;;27.00;91.80;;;;;;5127876;28;20201;-57
2021/05/05 08:22:47;;;;;;;2.33;1.15;;;27.00;91.70;;;;;;5127301;28;20057;-60
2021/05/05 08:25:14;;;;;;;2.35;0.98;;;27.00;91.70;;;;;;5127432;28;20345;-57
2021/05/05 08:27:40;;;;;;;3.65;1.10;;;27.00;91.60;;;;;;5127351;28;20216;-56
2021/05/05 08:30:08;;;;;;;2.75;1.00;;;27.00;91.60;;;;;;5127647;28;20027;-55
2021/05/05 08:32:34;;;;;;;3.83;1.17;;;27.00;91.60;;;;;;5127342;28;20200;-54
2021/05/05 08:35:01;;;;;;;2.95;0.90;;;27.00;91.60;;;;;;5127148;28;20080;-59
2021/05/05 08:37:28;;;;;;;3.22;0.98;;;27.00;91.60;;;;;;5127210;28;20323;-53
2021/05/05 08:39:54;;;;;;;3.70;0.95;;;26.90;91.60;;;;;;5127173;28;20019;-58
2021/05/05 08:42:21;;;;;;;1.55;0.85;;;26.90;91.60;;;;;;5127289;28;20022;-55
2021/05/05 08:44:49;;;;;;;2.83;0.60;;;27.00;91.60;;;;;;5127596;28;20249;-54
2021/05/05 08:47:17;;;;;;;3.72;1.00;;;27.00;91.50;;;;;;5127135;28;20016;-53
2021/05/05 08:49:44;;;;;;;2.05;0.88;;;26.90;91.50;;;;;;5127408;28;20355;-57
2021/05/05 08:52:11;;;;;;;2.72;0.70;;;26.90;91.50;;;;;;5127185;28;20211;-52
2021/05/05 08:54:38;;;;;;;2.63;0.82;;;26.90;91.50;;;;;;5127562;28;20031;-55
2021/05/05 08:57:05;;;;;;;2.20;0.70;;;26.90;91.50;;;;;;5126855;28;20023;-61
2021/05/05 08:59:32;;;;;;;1.55;0.70;;;26.90;91.40;;;;;;5126904;28;20035;-55
2021/05/05 09:02:00;;;;;;;2.85;0.70;;;26.90;91.40;;;;;;5126592;28;20326;-55
2021/05/05 09:04:27;;;;;;;2.03;0.70;;;26.90;91.40;;;;;;5126800;28;20020;-57
2021/05/05 09:06:59;;;;;;;2.03;0.70;;;26.80;91.40;;;;;;5126390;28;20168;-53
2021/05/05 09:09:45;;;;;;;2.38;0.70;;;26.90;91.40;;;;;;5127289;28;20341;-54
2021/05/05 09:12:13;;;;;;;3.15;0.80;;;26.80;91.30;;;;;;5126571;28;20027;-52
2021/05/05 09:15:00;;;;;;;1.73;0.65;;;26.80;91.40;;;;;;5126743;28;20312;-55
2021/05/05 09:17:30;;;;;;;2.70;0.60;;;26.80;91.20;;;;;;5127098;28;20085;-54
2021/05/05 09:20:22;;;;;;;2.70;0.70;;;26.80;91.20;;;;;;5126611;28;20023;-55
2021/05/05 09:22:50;;;;;;;1.83;0.60;;;26.80;91.20;;;;;;5112796;28;20213;-53
2021/05/05 09:25:21;;;;;;;1.17;0.70;;;26.80;91.30;;;;;;5126507;28;20207;-55
2021/05/05 09:28:21;;;;;;;4.53;0.73;;;26.70;91.20;;;;;;5125851;28;20312;-56
2021/05/05 09:30:53;;;;;;;4.90;0.80;;;26.70;91.20;;;;;;5126128;28;20047;-54
2021/05/05 09:33:33;;;;;;;3.28;0.85;;;26.70;91.30;;;;;;5126529;28;20026;-60
2021/05/05 09:36:01;;;;;;;2.03;0.73;;;26.70;91.30;;;;;;5126073;28;20265;-55
2021/05/05 09:38:51;;;;;;;7.47;0.90;;;26.70;91.30;;;;;;5125933;28;20046;-54
2021/05/05 09:41:22;;;;;;;2.10;0.70;;;26.60;91.30;;;;;;5126183;28;20026;-54
2021/05/05 09:43:50;;;;;;;5.07;1.17;;;26.60;91.30;;;;;;5108193;28;20035;-53
2021/05/05 09:46:52;;;;;;;3.40;0.90;;;26.60;91.30;;;;;;5125681;28;20194;-52
2021/05/05 09:49:32;;;;;;;4.82;1.23;;;26.60;91.40;;;;;;5072805;28;20054;-56
2021/05/05 09:52:08;;;;;;;3.72;1.30;;;26.60;91.30;;;;;;5125917;28;20098;-57
2021/05/05 09:54:37;;;;;;;4.40;1.13;;;26.60;91.40;;;;;;5126443;28;20028;-60
2021/05/05 09:57:30;;;;;;;3.72;0.90;;;26.60;91.30;;;;;;5125781;28;20031;-55
2021/05/05 10:00:16;;;;;;;3.28;0.90;;;26.60;91.30;;;;;;5125570;28;20024;-57
2021/05/05 10:02:51;;;;;;;3.45;1.25;;;26.60;91.30;;;;;;5125453;28;20012;-60
2021/05/05 10:05:34;;;;;;;10.32;1.75;;;26.60;91.40;;;;;;5125314;28;20074;-54
2021/05/05 10:08:08;;;;;;;6.60;1.42;;;26.60;91.30;;;;;;5118576;28;20361;-56
2021/05/05 10:10:40;;;;;;;4.75;1.85;;;26.60;91.40;;;;;;5125752;28;20210;-56
2021/05/05 10:13:08;;;;;;;4.40;1.98;;;26.60;91.40;;;;;;5125341;28;20015;-54
2021/05/05 10:15:38;;;;;;;5.13;1.50;;;26.50;91.30;;;;;;5125233;28;20024;-55
2021/05/05 10:18:10;;;;;;;4.03;1.40;;;26.50;91.30;;;;;;5125031;28;20019;-56
2021/05/05 10:20:37;;;;;;;2.67;1.10;;;26.50;91.40;;;;;;5125025;28;20018;-53
2021/05/05 10:23:05;;;;;;;4.32;1.10;;;26.50;91.40;;;;;;5125315;28;20024;-56
2021/05/05 10:25:33;;;;;;;2.35;1.00;;;26.50;91.40;;;;;;5125338;28;20016;-53
2021/05/05 10:27:59;;;;;;;3.47;1.58;;;26.50;91.40;;;;;;5125113;28;20015;-55
2021/05/05 10:30:33;;;;;;;2.63;1.65;;;26.50;91.40;;;;;;5124797;28;20046;-53
2021/05/05 10:33:00;;;;;;;4.18;1.83;;;26.50;91.40;;;;;;5125251;28;20024;-54
2021/05/05 10:35:27;;;;;;;2.75;1.55;;;26.50;91.40;;;;;;5124995;28;20011;-54
2021/05/05 10:38:00;;;;;;;3.10;1.60;;;26.50;91.40;;;;;;5125024;28;20090;-54
2021/05/05 10:40:36;;;;;;;5.47;1.80;;;26.50;91.40;;;;;;5124448;28;20312;-57
2021/05/05 10:43:05;;;;;;;2.03;1.10;;;26.50;91.50;;;;;;5125005;28;20304;-58
2021/05/05 10:45:33;;;;;;;4.43;1.25;;;26.40;91.40;;;;;;5124654;28;20047;-56
2021/05/05 10:48:11;;;;;;;1.77;1.10;;;26.40;91.40;;;;;;5124721;28;20308;-59
2021/05/05 10:50:50;;;;;;;3.00;0.75;;;26.40;91.40;;;;;;5124805;28;20033;-56
2021/05/05 10:53:26;;;;;;;1.95;0.70;;;26.50;91.50;;;;;;5124619;28;20015;-59
2021/05/05 10:55:59;;;;;;;3.67;0.95;;;26.40;91.40;;;;;;5124589;28;20087;-56
2021/05/05 10:58:30;;;;;;;3.92;1.10;;;26.40;91.50;;;;;;5124379;28;20091;-54
2021/05/05 11:01:05;;;;;;;3.53;1.02;;;26.40;91.50;;;;;;5124333;28;20054;-54
2021/05/05 11:03:46;;;;;;;1.73;0.88;;;26.40;91.50;;;;;;5124326;28;20237;-55
2021/05/05 11:06:34;;;;;;;2.22;0.93;;;26.40;91.50;;;;;;5124354;28;20040;-60
2021/05/05 11:09:13;;;;;;;3.75;0.90;;;26.40;91.60;;;;;;5125065;28;20099;-54
2021/05/05 11:11:44;;;;;;;3.50;0.80;;;26.40;91.60;;;;;;5124562;28;20252;-59
2021/05/05 11:14:31;;;;;;;4.10;0.70;;;26.40;91.70;;;;;;5124644;28;20068;-53
2021/05/05 11:17:11;;;;;;;4.18;1.05;;;26.40;91.60;;;;;;5107814;28;20024;-60
2021/05/05 11:19:38;;;;;;;2.92;0.70;;;26.40;91.70;;;;;;5124806;28;20031;-52
2021/05/05 11:22:08;;;;;;;3.17;0.70;;;26.40;91.60;;;;;;5124248;28;20242;-56
2021/05/05 11:24:37;;;;;;;3.65;0.70;;;26.30;91.60;;;;;;5124481;28;20020;-59
2021/05/05 11:27:10;;;;;;;3.42;0.70;;;26.30;91.70;;;;;;5124295;28;20016;-57
2021/05/05 11:29:42;;;;;;;1.73;0.70;;;26.40;91.70;;;;;;5124754;28;20327;-54
2021/05/05 11:32:13;;;;;;;4.65;1.00;;;26.30;91.70;;;;;;5124464;28;20024;-53
2021/05/05 11:34:43;;;;;;;3.70;0.63;;;26.40;91.80;;;;;;5124698;28;20035;-57
2021/05/05 11:37:12;;;;;;;4.13;0.90;;;26.40;91.80;;;;;;5124114;28;20019;-56
2021/05/05 11:39:48;;;;;;;4.43;0.90;;;26.30;91.80;;;;;;5124523;28;20095;-56
2021/05/05 11:42:23;;;;;;;3.80;1.13;;;26.30;91.70;;;;;;5124176;28;20020;-61
2021/05/05 11:45:00;;;;;;;5.35;0.95;;;26.30;91.90;;;;;;5124490;28;20031;-60
2021/05/05 11:47:31;;;;;;;1.77;0.60;;;26.30;91.70;;;;;;5124220;28;20018;-54
2021/05/05 11:50:10;;;;;;;2.83;0.60;;;26.30;91.70;;;;;;5125330;28;20031;-55
2021/05/05 11:52:41;;;;;;;3.28;0.57;;;26.30;91.70;;;;;;5128587;28;20351;-59
2021/05/05 11:55:11;;;;;;;1.77;0.57;;;26.30;91.70;;;;;;5127819;28;20338;-53
2021/05/05 11:57:41;;;;;;;2.63;0.70;;;26.30;91.70;;;;;;5128329;28;20022;-58
2021/05/05 12:00:33;;;;;;;2.72;0.90;;;26.30;91.70;;;;;;5127767;28;20039;-56
2021/05/05 12:03:01;;;;;;;3.65;0.70;;;26.30;91.80;;;;;;5127990;28;20253;-53
2021/05/05 12:05:36;;;;;;;1.67;0.68;;;26.30;91.80;;;;;;5127660;28;20080;-54
2021/05/05 12:08:05;;;;;;;2.53;0.93;;;26.30;91.80;;;;;;5127820;28;20039;-57
2021/05/05 12:10:55;;;;;;;2.38;0.82;;;26.30;91.90;;;;;;5127994;28;20042;-60
2021/05/05 12:13:31;;;;;;;2.58;0.80;;;26.30;91.90;;;;;;5128276;28;20204;-57
2021/05/05 12:16:26;;;;;;;2.63;0.50;;;26.30;91.90;;;;;;5127612;28;20027;-57
2021/05/05 12:18:53;;;;;;;3.15;0.93;;;26.30;91.80;;;;;;5119397;28;20235;-51
2021/05/05 12:21:28;;;;;;;3.17;1.05;;;26.30;91.80;;;;;;5127284;28;20021;-55
2021/05/05 12:23:59;;;;;;;2.30;1.05;;;26.30;91.90;;;;;;5127407;28;20049;-53
2021/05/05 12:26:35;;;;;;;4.32;0.98;;;26.30;91.90;;;;;;5127452;28;20335;-61
2021/05/05 12:29:07;;;;;;;1.58;0.75;;;26.30;91.90;;;;;;5127986;28;20035;-59
2021/05/05 12:31:36;;;;;;;3.20;1.27;;;26.30;91.90;;;;;;5127389;28;20086;-58
2021/05/05 12:34:05;;;;;;;2.45;1.15;;;26.30;91.90;;;;;;5127460;28;20095;-57
2021/05/05 12:36:39;;;;;;;3.80;1.30;;;26.30;91.90;;;;;;5127248;28;20028;-56
2021/05/05 12:39:21;;;;;;;3.53;1.20;;;26.30;91.90;;;;;;5127347;28;20068;-54
2021/05/05 12:41:53;;;;;;;2.58;1.30;;;26.30;92.00;;;;;;5127072;28;20039;-55
2021/05/05 12:44:32;;;;;;;4.70;1.27;;;26.20;92.00;;;;;;5126785;28;20035;-57
2021/05/05 12:47:06;;;;;;;3.25;1.05;;;26.30;92.00;;;;;;5126872;28;20278;-57
2021/05/05 12:49:35;;;;;;;5.50;1.08;;;26.30;92.00;;;;;;5127058;28;20327;-58
2021/05/05 12:52:06;;;;;;;2.95;0.90;;;26.20;92.00;;;;;;5126703;28;20216;-56
2021/05/05 12:54:42;;;;;;;2.10;1.05;;;26.20;92.00;;;;;;5127185;28;20019;-55
2021/05/05 12:57:22;;;;;;;5.53;1.13;;;26.20;92.00;;;;;;5126689;28;20019;-58
2021/05/05 12:59:51;;;;;;;1.80;1.00;;;26.30;92.00;;;;;;5126969;28;20034;-53
2021/05/05 13:02:24;;;;;;;2.67;0.80;;;26.20;92.00;;;;;;5125808;28;20041;-60
2021/05/05 13:04:52;;;;;;;3.17;1.00;;;26.20;92.00;;;;;;5126634;28;20055;-53
2021/05/05 13:07:36;;;;;;;2.35;0.73;;;26.20;92.00;;;;;;5124508;28;20048;-55
2021/05/05 13:10:15;;;;;;;3.67;1.48;;;26.20;92.00;;;;;;5126242;28;20316;-56
2021/05/05 13:12:46;;;;;;;3.38;0.82;;;26.20;91.90;;;;;;5126248;28;20015;-60